createdAt,value
2022-12-02T00:01:52.995Z,19.90
2022-12-02T00:04:26.190Z,22.57
2022-12-02T00:06:54.932Z,20.57
2022-12-02T00:09:35.542Z,22.93
2022-12-02T00:12:22.644Z,21.40
2022-12-02T00:15:16.058Z,20.23
2022-12-02T00:17:42.767Z,20.80
2022-12-02T00:20:10.605Z,19.33
2022-12-02T00:22:37.324Z,18.40
2022-12-02T00:25:04.331Z,20.77
2022-12-02T00:27:31.079Z,20.00
2022-12-02T00:29:57.796Z,20.73
2022-12-02T00:32:24.496Z,19.20
2022-12-02T00:34:51.451Z,23.30
2022-12-02T00:37:18.390Z,22.57
2022-12-02T00:39:45.189Z,21.17
2022-12-02T00:42:11.952Z,21.70
2022-12-02T00:44:57.486Z,21.43
2022-12-02T00:47:24.255Z,21.17
2022-12-02T00:49:50.971Z,18.40
2022-12-02T00:52:17.686Z,21.30
2022-12-02T00:54:44.390Z,23.20
2022-12-02T00:57:13.932Z,20.53
2022-12-02T00:59:40.665Z,20.63
2022-12-02T01:02:07.463Z,22.47
2022-12-02T01:04:34.280Z,21.80
2022-12-02T01:07:01.026Z,18.57
2022-12-02T01:09:27.890Z,22.10
2022-12-02T01:11:54.643Z,22.20
2022-12-02T01:14:21.751Z,22.70
2022-12-02T01:16:48.532Z,21.90
2022-12-02T01:19:15.595Z,22.63
2022-12-02T01:21:42.438Z,22.77
2022-12-02T01:24:09.182Z,20.20
2022-12-02T01:26:35.964Z,23.80
2022-12-02T01:29:02.840Z,22.20
2022-12-02T01:31:29.697Z,22.00
2022-12-02T01:33:56.476Z,20.90
2022-12-02T01:36:23.172Z,24.17
2022-12-02T01:38:49.971Z,21.07
2022-12-02T01:41:16.762Z,22.97
2022-12-02T01:43:43.754Z,23.67
2022-12-02T01:46:11.132Z,20.17
2022-12-02T01:48:38.265Z,22.30
2022-12-02T01:51:06.154Z,22.57
2022-12-02T01:53:34.139Z,22.50
2022-12-02T01:56:01.604Z,23.10
2022-12-02T01:58:31.190Z,19.40
2022-12-02T02:00:58.451Z,21.63
2022-12-02T02:03:25.260Z,18.83
2022-12-02T02:05:52.159Z,23.87
2022-12-02T02:08:19.275Z,24.07
2022-12-02T02:10:47.367Z,22.83
2022-12-02T02:13:16.583Z,23.20
2022-12-02T02:15:45.360Z,22.03
2022-12-02T02:18:12.482Z,23.33
2022-12-02T02:20:41.229Z,22.77
2022-12-02T02:23:07.917Z,22.83
2022-12-02T02:25:40.028Z,23.03
2022-12-02T02:28:08.244Z,18.33
2022-12-02T02:30:36.482Z,24.30
2022-12-02T02:33:05.667Z,22.03
2022-12-02T02:35:35.565Z,23.67
2022-12-02T02:38:02.942Z,22.50
2022-12-02T02:40:30.482Z,20.20
2022-12-02T02:43:01.377Z,22.03
2022-12-02T02:45:31.084Z,22.03
2022-12-02T02:47:58.057Z,20.20
2022-12-02T02:50:26.207Z,22.03
2022-12-02T02:52:53.654Z,21.27
2022-12-02T02:55:24.056Z,21.77
2022-12-02T02:57:51.303Z,24.67
2022-12-02T03:00:19.873Z,22.70
2022-12-02T03:02:51.370Z,21.20
2022-12-02T03:05:19.371Z,23.23
2022-12-02T03:07:46.771Z,21.87
2022-12-02T03:10:13.999Z,22.37
2022-12-02T03:12:40.985Z,21.57
2022-12-02T03:15:10.771Z,20.83
2022-12-02T03:17:37.673Z,23.50
2022-12-02T03:20:05.897Z,22.17
2022-12-02T03:22:33.107Z,23.07
2022-12-02T03:24:59.852Z,23.80
2022-12-02T03:27:27.723Z,22.03
2022-12-02T03:29:54.539Z,19.37
2022-12-02T03:32:21.386Z,25.17
2022-12-02T03:34:48.871Z,24.97
2022-12-02T03:37:16.146Z,20.90
2022-12-02T03:39:42.903Z,20.97
2022-12-02T03:42:09.719Z,22.20
2022-12-02T03:44:37.280Z,25.23
2022-12-02T03:47:04.794Z,23.93
2022-12-02T03:49:33.763Z,23.60
2022-12-02T03:52:00.898Z,23.13
2022-12-02T03:54:28.025Z,25.90
2022-12-02T03:56:54.850Z,23.60
2022-12-02T03:59:25.254Z,24.93
2022-12-02T04:01:52.256Z,23.20
2022-12-02T04:04:19.098Z,24.07
2022-12-02T04:06:46.022Z,23.00
2022-12-02T04:09:13.094Z,24.57
2022-12-02T04:11:39.898Z,22.67
2022-12-02T04:14:06.706Z,24.70
2022-12-02T04:16:33.495Z,24.70
2022-12-02T04:19:00.253Z,24.80
2022-12-02T04:21:27.047Z,22.50
2022-12-02T04:23:54.090Z,24.07
2022-12-02T04:26:21.301Z,22.77
2022-12-02T04:28:48.127Z,24.90
2022-12-02T04:31:15.016Z,21.43
2022-12-02T04:33:41.798Z,22.83
2022-12-02T04:36:09.451Z,22.13
2022-12-02T04:38:36.214Z,22.30
2022-12-02T04:41:03.087Z,22.57
2022-12-02T04:43:29.826Z,20.43
2022-12-02T04:45:56.633Z,24.60
2022-12-02T04:48:23.396Z,21.97
2022-12-02T04:50:50.178Z,22.40
2022-12-02T04:53:16.881Z,21.83
2022-12-02T04:55:46.672Z,22.90
2022-12-02T04:58:14.254Z,22.20
2022-12-02T05:00:40.998Z,21.73
2022-12-02T05:03:08.430Z,20.97
2022-12-02T05:05:35.243Z,20.80
2022-12-02T05:08:02.077Z,22.10
2022-12-02T05:13:08.501Z,20.50
2022-12-02T05:15:35.213Z,19.57
2022-12-02T05:18:02.006Z,20.97
2022-12-02T05:20:28.793Z,21.20
2022-12-02T05:22:55.558Z,19.80
2022-12-02T05:25:22.276Z,20.73
2022-12-02T05:27:49.041Z,19.53
2022-12-02T05:30:15.875Z,18.57
2022-12-02T05:32:42.603Z,19.53
2022-12-02T05:35:09.429Z,19.67
2022-12-02T05:37:36.150Z,17.67
2022-12-02T05:40:03.466Z,19.93
2022-12-02T05:42:30.370Z,19.57
2022-12-02T05:45:01.668Z,19.70
2022-12-02T05:47:31.053Z,19.50
2022-12-02T05:50:00.101Z,18.47
2022-12-02T05:52:29.537Z,18.33
2022-12-02T05:54:59.979Z,16.93
2022-12-02T05:57:29.187Z,19.57
2022-12-02T06:00:10.858Z,18.37
2022-12-02T06:02:45.523Z,18.27
2022-12-02T06:05:23.669Z,17.40
2022-12-02T06:07:54.040Z,17.30
2022-12-02T06:13:16.349Z,18.23
2022-12-02T06:15:43.303Z,17.90
2022-12-02T06:18:18.392Z,18.27
2022-12-02T06:20:47.009Z,18.97
2022-12-02T06:23:19.591Z,18.07
2022-12-02T06:25:47.239Z,18.80
2022-12-02T06:28:30.590Z,17.20
2022-12-02T06:31:01.470Z,16.70
2022-12-02T06:33:35.748Z,16.70
2022-12-02T06:36:05.581Z,18.60
2022-12-02T06:38:40.679Z,16.87
2022-12-02T06:41:15.593Z,15.50
2022-12-02T06:43:42.367Z,18.17
2022-12-02T06:46:19.766Z,15.90
2022-12-02T06:48:46.526Z,17.40
2022-12-02T06:51:18.606Z,14.43
2022-12-02T06:53:46.235Z,17.47
2022-12-02T06:56:29.949Z,19.73
2022-12-02T06:59:00.316Z,16.03
2022-12-02T07:01:39.096Z,18.10
2022-12-02T07:04:08.734Z,17.77
2022-12-02T07:06:44.442Z,18.10
2022-12-02T07:09:22.678Z,18.70
2022-12-02T07:11:51.726Z,17.43
2022-12-02T07:14:47.507Z,18.00
2022-12-02T07:17:30.825Z,26.67
2022-12-02T07:20:00.641Z,17.40
2022-12-02T07:22:44.306Z,19.13
2022-12-02T07:25:11.007Z,20.33
2022-12-02T07:27:43.579Z,17.87
2022-12-02T07:30:49.483Z,19.73
2022-12-02T07:33:16.205Z,17.60
2022-12-02T07:35:42.959Z,17.57
2022-12-02T07:38:09.858Z,18.73
2022-12-02T07:40:36.641Z,17.47
2022-12-02T07:43:03.378Z,16.17
2022-12-02T07:45:30.123Z,16.27
2022-12-02T07:47:56.895Z,17.10
2022-12-02T07:50:23.659Z,17.07
2022-12-02T07:52:50.415Z,18.00
2022-12-02T07:55:22.706Z,17.53
2022-12-02T07:57:52.998Z,15.67
2022-12-02T08:00:20.347Z,16.60
2022-12-02T08:02:47.088Z,17.00
2022-12-02T08:05:13.895Z,18.57
2022-12-02T08:07:40.802Z,20.20
2022-12-02T08:10:11.178Z,20.90
2022-12-02T08:12:39.151Z,19.57
2022-12-02T08:15:11.008Z,20.30
2022-12-02T08:17:38.090Z,19.97
2022-12-02T08:20:07.180Z,22.23
2022-12-02T08:22:33.965Z,17.63
2022-12-02T08:25:00.915Z,13.20
2022-12-02T08:27:27.778Z,16.10
2022-12-02T08:29:54.576Z,17.30
2022-12-02T08:32:21.751Z,14.20
2022-12-02T08:34:48.965Z,15.40
2022-12-02T08:37:16.104Z,15.90
2022-12-02T08:39:42.947Z,13.40
2022-12-02T08:42:10.099Z,16.37
2022-12-02T08:44:36.931Z,16.73
2022-12-02T08:47:03.675Z,16.70
2022-12-02T08:49:30.497Z,16.00
2022-12-02T08:51:57.262Z,16.30
2022-12-02T08:54:24.191Z,19.57
2022-12-02T08:56:51.246Z,17.90
2022-12-02T08:59:18.087Z,17.20
2022-12-02T09:01:45.223Z,18.93
2022-12-02T09:04:11.966Z,17.20
2022-12-02T09:06:38.809Z,20.47
2022-12-02T09:09:06.261Z,19.07
2022-12-02T09:11:33.530Z,19.13
2022-12-02T09:14:00.426Z,17.20
2022-12-02T09:16:27.268Z,20.03
2022-12-02T09:18:55.984Z,22.00
2022-12-02T09:21:22.901Z,20.97
2022-12-02T09:23:50.903Z,20.67
2022-12-02T09:26:18.221Z,22.30
2022-12-02T09:28:44.978Z,24.23
2022-12-02T09:31:11.785Z,23.57
2022-12-02T09:33:38.555Z,23.30
2022-12-02T09:36:05.547Z,19.93
2022-12-02T09:38:32.542Z,24.87
2022-12-02T09:41:00.948Z,23.47
2022-12-02T09:43:31.335Z,24.27
2022-12-02T09:45:58.875Z,24.43
2022-12-02T09:48:26.957Z,23.20
2022-12-02T09:50:54.177Z,23.67
2022-12-02T09:53:21.835Z,24.60
2022-12-02T09:55:48.606Z,22.47
2022-12-02T09:58:19.512Z,25.10
2022-12-02T10:00:47.268Z,24.33
2022-12-02T10:03:19.043Z,23.80
2022-12-02T10:05:46.744Z,21.80
2022-12-02T10:08:19.635Z,26.20
2022-12-02T10:10:47.268Z,21.70
2022-12-02T10:13:20.850Z,26.47
2022-12-02T10:15:48.720Z,20.27
2022-12-02T10:18:21.563Z,21.63
2022-12-02T10:20:50.318Z,23.50
2022-12-02T10:23:20.125Z,21.60
2022-12-02T10:25:54.500Z,26.33
2022-12-02T10:28:32.391Z,21.50
2022-12-02T10:31:08.448Z,21.70
2022-12-02T10:33:38.523Z,21.20
2022-12-02T10:36:06.035Z,25.03
2022-12-02T10:38:37.991Z,24.33
2022-12-02T10:41:26.084Z,22.63
2022-12-02T10:43:52.791Z,17.47
2022-12-02T10:46:21.572Z,21.07
2022-12-02T10:48:49.622Z,21.90
2022-12-02T10:51:18.358Z,20.67
2022-12-02T10:53:47.708Z,23.43
2022-12-02T10:56:24.020Z,21.67
2022-12-02T10:58:51.385Z,24.33
2022-12-02T11:01:21.075Z,18.93
2022-12-02T11:03:48.539Z,21.00
2022-12-02T11:06:17.330Z,23.23
2022-12-02T11:08:44.522Z,21.23
2022-12-02T11:11:38.845Z,21.13
2022-12-02T11:14:09.431Z,20.97
2022-12-02T11:16:36.199Z,18.50
2022-12-02T11:22:02.698Z,16.53
2022-12-02T11:24:32.479Z,23.17
2022-12-02T11:27:04.824Z,21.07
2022-12-02T11:29:32.493Z,17.30
2022-12-02T11:32:02.421Z,19.07
2022-12-02T11:37:47.540Z,16.87
2022-12-02T11:40:17.157Z,21.27
2022-12-02T11:42:45.465Z,20.00
2022-12-02T11:45:18.194Z,20.80
2022-12-02T11:55:47.524Z,19.67
2022-12-02T11:58:35.043Z,19.20
2022-12-02T12:01:15.222Z,17.27
2022-12-02T12:03:43.598Z,20.00
2022-12-02T12:06:25.678Z,21.73
2022-12-02T12:08:55.520Z,21.77
2022-12-02T12:11:24.392Z,17.63
2022-12-02T12:14:13.278Z,20.90
2022-12-02T12:16:46.588Z,21.50
2022-12-02T12:19:13.318Z,21.90
2022-12-02T12:21:48.481Z,16.00
2022-12-02T12:24:21.456Z,18.77
2022-12-02T12:26:56.604Z,21.03
2022-12-02T12:29:30.026Z,20.70
2022-12-02T12:31:56.827Z,20.37
2022-12-02T12:34:23.725Z,18.93
2022-12-02T12:36:50.500Z,19.27
2022-12-02T12:39:18.322Z,21.70
2022-12-02T12:42:01.970Z,18.87
2022-12-02T12:44:31.561Z,21.13
2022-12-02T12:47:04.814Z,18.67
2022-12-02T12:49:33.187Z,19.57
2022-12-02T12:52:01.086Z,19.00
2022-12-02T12:54:27.896Z,18.30
2022-12-02T12:56:54.716Z,16.67
2022-12-02T12:59:21.635Z,20.13
2022-12-02T13:01:48.539Z,19.27
2022-12-02T13:04:15.321Z,20.63
2022-12-02T13:06:43.143Z,17.60
2022-12-02T13:09:11.379Z,19.00
2022-12-02T13:11:38.110Z,19.50
2022-12-02T13:14:04.884Z,18.87
2022-12-02T13:16:32.360Z,16.97
2022-12-02T13:18:59.223Z,20.87
2022-12-02T13:21:26.016Z,17.60
2022-12-02T13:23:52.758Z,20.90
2022-12-02T13:26:19.994Z,21.00
2022-12-02T13:28:46.959Z,22.07
2022-12-02T13:31:13.804Z,20.40
2022-12-02T13:33:40.642Z,21.37
2022-12-02T13:36:07.896Z,22.40
2022-12-02T13:38:34.684Z,19.70
2022-12-02T13:41:01.601Z,20.13
2022-12-02T13:43:28.302Z,21.37
2022-12-02T13:45:55.091Z,19.37
2022-12-02T13:48:21.903Z,18.53
2022-12-02T13:50:48.700Z,19.60
2022-12-02T13:53:15.458Z,15.10
2022-12-02T13:55:42.230Z,15.63
2022-12-02T13:58:09.034Z,19.23
2022-12-02T14:00:35.795Z,15.23
2022-12-02T14:03:02.557Z,18.33
2022-12-02T14:05:29.323Z,18.90
2022-12-02T14:07:56.082Z,15.97
2022-12-02T14:10:22.977Z,18.10
2022-12-02T14:12:49.726Z,15.20
2022-12-02T14:15:16.458Z,19.23
2022-12-02T14:17:43.204Z,16.10
2022-12-02T14:20:10.449Z,19.90
2022-12-02T14:22:37.178Z,20.97
2022-12-02T14:25:04.229Z,19.77
2022-12-02T14:27:31.450Z,21.17
2022-12-02T14:29:58.265Z,20.33
2022-12-02T14:32:25.138Z,20.60
2022-12-02T14:34:52.328Z,21.33
2022-12-02T14:37:19.271Z,21.50
2022-12-02T14:39:46.009Z,22.33
2022-12-02T14:42:12.777Z,22.17
2022-12-02T14:44:39.549Z,20.50
2022-12-02T14:47:06.324Z,21.00
2022-12-02T14:49:47.612Z,21.50
2022-12-02T14:52:14.419Z,20.20
2022-12-02T14:54:41.189Z,22.20
2022-12-02T14:57:08.401Z,18.97
2022-12-02T14:59:35.157Z,21.07
2022-12-02T15:02:01.966Z,21.20
2022-12-02T15:04:29.972Z,20.20
2022-12-02T15:06:56.790Z,21.43
2022-12-02T15:09:23.876Z,14.93
2022-12-02T15:11:52.243Z,16.30
2022-12-02T15:14:20.104Z,20.33
2022-12-02T15:16:47.023Z,17.10
2022-12-02T15:19:13.806Z,16.27
2022-12-02T15:21:40.728Z,21.30
2022-12-02T15:24:07.732Z,17.93
2022-12-02T15:26:34.870Z,21.83
2022-12-02T15:29:01.701Z,16.03
2022-12-02T15:31:28.505Z,16.40
2022-12-02T15:33:55.358Z,20.70
2022-12-02T15:36:22.079Z,24.57
2022-12-02T15:38:48.893Z,21.63
2022-12-02T15:41:15.759Z,22.37
2022-12-02T15:43:42.461Z,19.13
2022-12-02T15:46:09.296Z,19.07
2022-12-02T15:48:36.884Z,21.23
2022-12-02T15:51:03.816Z,16.93
2022-12-02T15:53:30.503Z,17.17
2022-12-02T15:55:57.259Z,24.97
2022-12-02T15:58:24.193Z,23.97
2022-12-02T16:00:50.986Z,16.50
2022-12-02T16:03:17.797Z,20.83
2022-12-02T16:05:44.880Z,16.70
2022-12-02T16:08:11.686Z,21.37
2022-12-02T16:10:38.518Z,20.63
2022-12-02T16:13:05.515Z,15.40
2022-12-02T16:15:32.246Z,19.90
2022-12-02T16:17:58.973Z,20.00
2022-12-02T16:20:25.705Z,18.83
2022-12-02T16:22:52.406Z,17.40
2022-12-02T16:25:19.176Z,19.60
2022-12-02T16:27:46.003Z,19.57
2022-12-02T16:30:13.127Z,20.07
2022-12-02T16:32:39.833Z,19.33
2022-12-02T16:35:07.082Z,18.70
2022-12-02T16:37:33.801Z,21.03
2022-12-02T16:40:00.587Z,20.10
2022-12-02T16:42:27.463Z,19.43
2022-12-02T16:44:56.002Z,18.83
2022-12-02T16:47:23.849Z,18.00
2022-12-02T16:49:51.045Z,20.40
2022-12-02T16:52:17.900Z,15.60
2022-12-02T16:54:44.819Z,19.03
2022-12-02T16:57:12.000Z,20.50
2022-12-02T16:59:39.523Z,17.27
2022-12-02T17:02:06.304Z,18.83
2022-12-02T17:04:33.148Z,17.83
2022-12-02T17:06:59.922Z,17.73
2022-12-02T17:09:26.986Z,16.60
2022-12-02T17:11:53.743Z,19.60
2022-12-02T17:14:20.501Z,19.93
2022-12-02T17:16:47.263Z,17.40
2022-12-02T17:19:14.431Z,19.43
2022-12-02T17:21:41.263Z,20.20
2022-12-02T17:24:09.114Z,14.37
2022-12-02T17:26:35.933Z,19.90
2022-12-02T17:29:02.685Z,18.63
2022-12-02T17:31:29.481Z,19.23
2022-12-02T17:33:56.337Z,17.43
2022-12-02T17:36:23.052Z,14.17
2022-12-02T17:38:56.627Z,20.00
2022-12-02T17:41:24.922Z,18.30
2022-12-02T17:43:51.973Z,16.30
2022-12-02T17:46:19.077Z,18.07
2022-12-02T17:48:45.905Z,17.00
2022-12-02T17:51:14.111Z,14.70
2022-12-02T17:56:09.731Z,17.97
2022-12-02T17:58:37.040Z,17.57
2022-12-02T18:01:09.415Z,19.40
2022-12-02T18:03:38.657Z,15.67
2022-12-02T18:06:06.221Z,17.90
2022-12-02T18:08:33.674Z,16.83
2022-12-02T18:11:00.990Z,14.80
2022-12-02T18:13:28.249Z,13.70
2022-12-02T18:15:55.050Z,18.83
2022-12-02T18:18:21.902Z,13.60
2022-12-02T18:20:48.713Z,17.77
2022-12-02T18:23:17.114Z,17.10
2022-12-02T18:25:45.843Z,15.63
2022-12-02T18:28:12.802Z,14.63
2022-12-02T18:30:39.600Z,16.80
2022-12-02T18:33:07.203Z,15.97
2022-12-02T18:35:33.979Z,16.13
2022-12-02T18:38:00.705Z,16.93
2022-12-02T18:40:27.477Z,17.33
2022-12-02T18:42:54.186Z,16.40
2022-12-02T18:45:20.982Z,16.30
2022-12-02T18:47:47.761Z,16.40
2022-12-02T18:50:15.182Z,17.43
2022-12-02T18:52:42.700Z,14.03
2022-12-02T18:55:13.030Z,18.27
2022-12-02T18:57:40.097Z,14.97
2022-12-02T19:00:08.472Z,15.83
2022-12-02T19:02:35.487Z,14.77
2022-12-02T19:05:02.210Z,16.00
2022-12-02T19:07:29.026Z,14.47
2022-12-02T19:09:55.794Z,12.77
2022-12-02T19:12:22.534Z,13.97
2022-12-02T19:14:49.548Z,13.90
2022-12-02T19:17:16.877Z,16.10
2022-12-02T19:19:43.724Z,16.67
2022-12-02T19:22:11.368Z,14.97
2022-12-02T19:24:38.113Z,15.60
2022-12-02T19:27:04.995Z,15.53
2022-12-02T19:29:31.750Z,14.20
2022-12-02T19:31:58.744Z,13.67
2022-12-02T19:34:25.634Z,14.40
2022-12-02T19:36:52.406Z,15.97
2022-12-02T19:39:19.147Z,15.93
2022-12-02T19:41:45.890Z,11.17
2022-12-02T19:44:12.641Z,15.03
2022-12-02T19:46:39.497Z,15.80
2022-12-02T19:49:06.388Z,14.93
2022-12-02T19:51:33.160Z,13.50
2022-12-02T19:53:59.914Z,14.37
2022-12-02T19:56:26.787Z,13.47
2022-12-02T19:58:53.546Z,13.60
2022-12-02T20:01:20.392Z,14.07
2022-12-02T20:03:47.159Z,14.70
2022-12-02T20:06:13.911Z,13.93
2022-12-02T20:08:40.762Z,14.23
2022-12-02T20:11:07.532Z,15.93
2022-12-02T20:13:34.530Z,14.80
2022-12-02T20:16:01.407Z,15.10
2022-12-02T20:18:28.234Z,15.20
2022-12-02T20:20:55.034Z,10.97
2022-12-02T20:23:21.895Z,14.50
2022-12-02T20:25:48.718Z,17.43
2022-12-02T20:28:15.462Z,14.33
2022-12-02T20:30:42.228Z,15.93
2022-12-02T20:33:09.019Z,16.27
2022-12-02T20:35:35.744Z,16.13
2022-12-02T20:38:02.526Z,14.50
2022-12-02T20:40:29.405Z,11.63
2022-12-02T20:42:56.145Z,12.13
2022-12-02T20:45:23.947Z,14.97
2022-12-02T20:47:51.149Z,12.67
2022-12-02T20:50:18.093Z,10.00
2022-12-02T20:52:51.341Z,14.50
2022-12-02T20:55:20.098Z,16.40
2022-12-02T20:57:47.977Z,14.43
2022-12-02T21:00:16.259Z,11.43
2022-12-02T21:02:43.473Z,11.43
2022-12-02T21:05:10.583Z,15.70
2022-12-02T21:07:38.004Z,10.27
2022-12-02T21:10:05.392Z,11.17
2022-12-02T21:12:32.210Z,15.17
2022-12-02T21:14:58.997Z,11.90
2022-12-02T21:17:26.885Z,14.20
2022-12-02T21:19:53.760Z,14.50
2022-12-02T21:22:20.586Z,15.27
2022-12-02T21:24:47.311Z,14.47
2022-12-02T21:27:15.179Z,13.47
2022-12-02T21:29:42.345Z,13.87
2022-12-02T21:32:09.167Z,14.80
2022-12-02T21:34:35.942Z,13.63
2022-12-02T21:37:02.691Z,9.13
2022-12-02T21:39:29.548Z,13.47
2022-12-02T21:41:56.310Z,15.37
2022-12-02T21:44:23.131Z,14.43
2022-12-02T21:46:49.936Z,14.30
2022-12-02T21:49:16.757Z,15.43
2022-12-02T21:51:43.473Z,14.87
2022-12-02T21:54:10.313Z,19.10
2022-12-02T21:56:37.463Z,12.57
2022-12-02T21:59:04.389Z,14.73
2022-12-02T22:01:42.180Z,12.40
2022-12-02T22:04:12.657Z,18.20
2022-12-02T22:06:39.619Z,15.87
2022-12-02T22:09:07.138Z,14.60
2022-12-02T22:11:34.522Z,14.13
2022-12-02T22:14:01.647Z,13.13
2022-12-02T22:16:28.480Z,13.70
2022-12-02T22:18:55.250Z,13.60
2022-12-02T22:21:23.301Z,13.77
2022-12-02T22:23:50.545Z,13.83
2022-12-02T22:26:20.056Z,14.53
2022-12-02T22:28:47.038Z,13.73
2022-12-02T22:31:14.021Z,9.73
2022-12-02T22:33:40.834Z,13.33
2022-12-02T22:36:07.835Z,13.10
2022-12-02T22:38:34.583Z,11.30
2022-12-02T22:41:01.364Z,12.20
2022-12-02T22:43:28.141Z,13.97
2022-12-02T22:45:54.925Z,12.97
2022-12-02T22:48:21.673Z,10.80
2022-12-02T22:50:48.402Z,13.40
2022-12-02T22:53:15.129Z,12.30
2022-12-02T22:55:41.898Z,12.00
2022-12-02T22:58:08.603Z,9.43
2022-12-02T23:00:35.377Z,13.33
2022-12-02T23:03:02.198Z,12.80
2022-12-02T23:05:28.969Z,13.87
2022-12-02T23:07:55.861Z,13.97
2022-12-02T23:10:22.672Z,15.27
2022-12-02T23:12:49.452Z,11.30
2022-12-02T23:18:03.347Z,12.83
2022-12-02T23:20:30.072Z,13.93
2022-12-02T23:22:56.837Z,13.97
2022-12-02T23:25:23.663Z,11.40
2022-12-02T23:27:50.471Z,13.80
2022-12-02T23:30:17.449Z,11.73
2022-12-02T23:32:44.193Z,10.77
2022-12-02T23:35:11.266Z,12.73
2022-12-02T23:37:38.080Z,12.77
2022-12-02T23:40:06.351Z,10.70
2022-12-02T23:42:38.013Z,12.80
2022-12-02T23:45:06.203Z,12.70
2022-12-02T23:47:32.958Z,11.90
2022-12-02T23:49:59.776Z,12.20
2022-12-02T23:52:26.542Z,12.13
2022-12-02T23:54:53.446Z,13.20
2022-12-02T23:57:20.399Z,13.17
2022-12-02T23:59:47.103Z,11.53
